createdAt,value
2023-05-05T00:01:48.434Z,13.60
2023-05-05T00:04:17.569Z,13.47
2023-05-05T00:06:47.286Z,13.47
2023-05-05T00:09:14.979Z,13.58
2023-05-05T00:11:42.778Z,13.48
2023-05-05T00:14:11.128Z,13.46
2023-05-05T00:16:39.078Z,13.45
2023-05-05T00:19:06.830Z,13.46
2023-05-05T00:21:34.889Z,13.52
2023-05-05T00:24:04.025Z,13.67
2023-05-05T00:26:31.641Z,13.61
2023-05-05T00:28:59.352Z,13.62
2023-05-05T00:31:27.067Z,13.68
2023-05-05T00:33:56.444Z,13.72
2023-05-05T00:36:24.088Z,13.70
2023-05-05T00:38:51.764Z,13.72
2023-05-05T00:41:20.775Z,13.67
2023-05-05T00:43:48.746Z,13.59
2023-05-05T00:46:24.610Z,13.60
2023-05-05T00:48:52.540Z,13.54
2023-05-05T00:51:21.886Z,13.53
2023-05-05T00:53:50.187Z,13.58
2023-05-05T00:56:19.608Z,13.59
2023-05-05T00:58:49.142Z,13.52
2023-05-05T01:01:17.070Z,13.53
2023-05-05T01:03:44.807Z,13.51
2023-05-05T01:06:24.459Z,13.46
2023-05-05T01:09:05.042Z,13.47
2023-05-05T01:11:43.066Z,13.53
2023-05-05T01:14:17.064Z,13.56
2023-05-05T01:16:55.108Z,13.64
2023-05-05T01:19:41.753Z,13.63
2023-05-05T01:22:14.412Z,13.64
2023-05-05T01:24:53.554Z,13.59
2023-05-05T01:27:35.981Z,13.64
2023-05-05T01:30:18.051Z,13.59
2023-05-05T01:32:51.703Z,13.50
2023-05-05T01:35:22.020Z,13.58
2023-05-05T01:37:56.333Z,13.55
2023-05-05T01:40:32.328Z,13.63
2023-05-05T01:43:02.748Z,13.69
2023-05-05T01:45:34.533Z,13.76
2023-05-05T01:48:06.329Z,13.86
2023-05-05T01:50:35.723Z,13.89
2023-05-05T01:53:05.702Z,13.97
2023-05-05T01:55:35.570Z,13.98
2023-05-05T01:58:04.554Z,13.95
2023-05-05T02:00:33.849Z,14.00
2023-05-05T02:03:05.106Z,13.98
2023-05-05T02:05:34.472Z,14.03
2023-05-05T02:08:03.839Z,13.89
2023-05-05T02:10:32.569Z,13.96
2023-05-05T02:13:02.965Z,13.99
2023-05-05T02:15:31.886Z,14.06
2023-05-05T02:18:01.491Z,14.13
2023-05-05T02:20:32.682Z,14.09
2023-05-05T02:23:00.970Z,14.16
2023-05-05T02:25:36.703Z,14.35
2023-05-05T02:28:05.796Z,14.40
2023-05-05T02:30:36.188Z,14.43
2023-05-05T02:33:08.371Z,14.35
2023-05-05T02:35:40.100Z,14.36
2023-05-05T02:38:13.518Z,14.28
2023-05-05T02:40:44.439Z,14.35
2023-05-05T02:43:16.598Z,14.37
2023-05-05T02:45:44.373Z,14.42
2023-05-05T02:48:12.942Z,14.56
2023-05-05T02:50:42.081Z,14.57
2023-05-05T02:53:10.090Z,14.64
2023-05-05T02:55:43.035Z,14.42
2023-05-05T02:58:18.172Z,14.32
2023-05-05T03:00:54.573Z,14.28
2023-05-05T03:03:26.991Z,14.28
2023-05-05T03:06:03.845Z,14.30
2023-05-05T03:08:38.050Z,14.26
2023-05-05T03:11:07.820Z,13.91
2023-05-05T03:13:37.702Z,13.77
2023-05-05T03:16:08.508Z,13.64
2023-05-05T03:18:39.053Z,13.44
2023-05-05T03:21:09.008Z,13.34
2023-05-05T03:23:37.210Z,13.47
2023-05-05T03:26:04.900Z,13.54
2023-05-05T03:28:32.589Z,13.64
2023-05-05T03:31:00.360Z,13.60
2023-05-05T03:33:28.299Z,13.74
2023-05-05T03:35:55.920Z,13.75
2023-05-05T03:38:25.020Z,13.76
2023-05-05T03:40:52.726Z,13.72
2023-05-05T03:43:20.617Z,13.70
2023-05-05T03:45:50.398Z,13.64
2023-05-05T03:48:18.272Z,13.65
2023-05-05T03:50:46.200Z,13.61
2023-05-05T03:53:14.009Z,13.55
2023-05-05T03:55:43.026Z,13.48
2023-05-05T03:58:11.124Z,13.37
2023-05-05T04:00:38.881Z,13.43
2023-05-05T04:03:06.944Z,13.50
2023-05-05T04:05:35.150Z,13.61
2023-05-05T04:08:03.333Z,13.73
2023-05-05T04:10:31.657Z,13.70
2023-05-05T04:13:01.308Z,13.69
2023-05-05T04:15:29.019Z,13.57
2023-05-05T04:17:56.780Z,13.66
2023-05-05T04:20:24.810Z,13.65
2023-05-05T04:22:52.898Z,13.68
2023-05-05T04:25:20.632Z,13.85
2023-05-05T04:27:48.306Z,13.97
2023-05-05T04:30:17.337Z,14.05
2023-05-05T04:32:45.082Z,14.24
2023-05-05T04:35:13.397Z,14.30
2023-05-05T04:37:41.352Z,14.44
2023-05-05T04:40:10.629Z,14.58
2023-05-05T04:42:38.344Z,14.74
2023-05-05T04:45:06.918Z,14.95
2023-05-05T04:47:39.189Z,14.97
2023-05-05T04:50:08.115Z,15.02
2023-05-05T04:52:36.812Z,14.98
2023-05-05T04:55:04.825Z,15.17
2023-05-05T04:57:32.528Z,15.41
2023-05-05T05:00:01.479Z,15.50
2023-05-05T05:02:29.186Z,15.56
2023-05-05T05:04:58.252Z,15.63
2023-05-05T05:07:25.954Z,15.63
2023-05-05T05:09:53.786Z,15.53
2023-05-05T05:12:21.447Z,15.55
2023-05-05T05:14:49.040Z,15.37
2023-05-05T05:17:16.885Z,15.35
2023-05-05T05:19:44.596Z,15.29
2023-05-05T05:22:13.543Z,15.29
2023-05-05T05:24:41.452Z,15.58
2023-05-05T05:27:10.121Z,15.57
2023-05-05T05:29:37.983Z,15.53
2023-05-05T05:32:06.239Z,15.54
2023-05-05T05:34:33.920Z,15.55
2023-05-05T05:37:01.766Z,15.54
2023-05-05T05:39:30.844Z,15.63
2023-05-05T05:41:58.465Z,15.60
2023-05-05T05:44:26.178Z,15.68
2023-05-05T05:46:53.857Z,15.63
2023-05-05T05:49:21.505Z,15.62
2023-05-05T05:51:49.172Z,15.67
2023-05-05T05:54:17.025Z,15.58
2023-05-05T05:56:46.063Z,15.72
2023-05-05T05:59:13.642Z,15.80
2023-05-05T06:01:41.336Z,15.87
2023-05-05T06:04:09.174Z,15.82
2023-05-05T06:06:37.033Z,15.98
2023-05-05T06:09:04.945Z,16.00
2023-05-05T06:11:33.068Z,16.18
2023-05-05T06:14:02.183Z,16.26
2023-05-05T06:16:29.946Z,16.37
2023-05-05T06:19:00.390Z,16.60
2023-05-05T06:21:28.264Z,16.65
2023-05-05T06:23:55.962Z,16.78
2023-05-05T06:26:23.644Z,16.78
2023-05-05T06:28:51.322Z,16.76
2023-05-05T06:31:20.394Z,16.79
2023-05-05T06:33:47.961Z,16.90
2023-05-05T06:36:15.702Z,17.08
2023-05-05T06:38:43.586Z,17.17
2023-05-05T06:41:11.496Z,17.30
2023-05-05T06:43:39.673Z,17.45
2023-05-05T06:46:07.325Z,18.04
2023-05-05T06:48:36.848Z,18.47
2023-05-05T06:51:04.826Z,18.95
2023-05-05T06:53:32.567Z,19.07
2023-05-05T06:56:00.209Z,19.20
2023-05-05T06:58:27.854Z,19.36
2023-05-05T07:00:55.783Z,19.70
2023-05-05T07:03:23.481Z,19.88
2023-05-05T07:05:53.883Z,20.49
2023-05-05T07:08:21.799Z,20.71
2023-05-05T07:10:49.787Z,20.61
2023-05-05T07:13:17.808Z,20.81
2023-05-05T07:15:46.593Z,20.92
2023-05-05T07:18:14.511Z,20.96
2023-05-05T07:20:42.517Z,21.39
2023-05-05T07:23:11.890Z,21.96
2023-05-05T07:25:40.046Z,23.07
2023-05-05T07:28:08.062Z,23.26
2023-05-05T07:30:36.012Z,22.99
2023-05-05T07:33:04.278Z,23.57
2023-05-05T07:35:31.995Z,24.18
2023-05-05T07:37:59.896Z,24.45
2023-05-05T07:40:29.063Z,24.25
2023-05-05T07:42:56.840Z,24.29
2023-05-05T07:45:24.620Z,23.74
2023-05-05T07:47:52.772Z,23.81
2023-05-05T07:50:20.730Z,24.14
2023-05-05T07:52:54.010Z,24.08
2023-05-05T07:55:31.332Z,24.43
2023-05-05T07:57:59.229Z,23.55
2023-05-05T08:00:27.347Z,24.96
2023-05-05T08:02:55.054Z,25.24
2023-05-05T08:05:22.798Z,25.10
2023-05-05T08:07:50.715Z,25.30
2023-05-05T08:10:18.502Z,25.62
2023-05-05T08:12:47.613Z,25.11
2023-05-05T08:15:15.418Z,24.97
2023-05-05T08:17:48.053Z,25.68
2023-05-05T08:20:16.443Z,24.96
2023-05-05T08:22:44.278Z,24.55
2023-05-05T08:25:13.073Z,24.36
2023-05-05T08:27:42.110Z,24.63
2023-05-05T08:30:12.393Z,25.35
2023-05-05T08:32:40.229Z,25.53
2023-05-05T08:35:08.698Z,24.72
2023-05-05T08:37:36.609Z,25.90
2023-05-05T08:40:04.716Z,26.31
2023-05-05T08:42:37.178Z,26.14
2023-05-05T08:45:06.875Z,25.38
2023-05-05T08:47:36.966Z,25.22
2023-05-05T08:50:06.629Z,25.93
2023-05-05T08:52:41.274Z,25.80
2023-05-05T08:55:16.359Z,25.52
2023-05-05T08:57:51.419Z,24.70
2023-05-05T09:00:20.750Z,25.52
2023-05-05T09:02:50.339Z,26.29
2023-05-05T09:05:19.119Z,26.11
2023-05-05T09:07:47.498Z,26.45
2023-05-05T09:10:15.887Z,25.92
2023-05-05T09:12:43.992Z,25.89
2023-05-05T09:15:13.618Z,25.60
2023-05-05T09:17:42.065Z,25.20
2023-05-05T09:20:12.908Z,24.81
2023-05-05T09:22:43.118Z,25.62
2023-05-05T09:25:13.142Z,25.59
2023-05-05T09:27:42.281Z,25.87
2023-05-05T09:30:12.151Z,26.56
2023-05-05T09:32:48.013Z,26.11
2023-05-05T09:35:18.040Z,25.58
2023-05-05T09:37:46.700Z,26.09
2023-05-05T09:40:15.829Z,26.44
2023-05-05T09:42:44.693Z,26.37
2023-05-05T09:45:27.924Z,26.05
2023-05-05T09:47:59.590Z,25.76
2023-05-05T09:50:32.631Z,25.82
2023-05-05T09:53:03.019Z,25.86
2023-05-05T09:55:31.981Z,25.80
2023-05-05T09:58:18.608Z,25.75
2023-05-05T10:00:47.490Z,25.83
2023-05-05T10:03:16.023Z,25.78
2023-05-05T10:05:52.022Z,25.88
2023-05-05T10:08:21.375Z,25.11
2023-05-05T10:10:52.560Z,25.59
2023-05-05T10:13:22.140Z,25.26
2023-05-05T10:15:52.414Z,25.56
2023-05-05T10:18:22.735Z,25.31
2023-05-05T10:20:57.988Z,25.33
2023-05-05T10:23:30.183Z,25.08
2023-05-05T10:26:03.591Z,25.10
2023-05-05T10:28:35.072Z,24.64
2023-05-05T10:31:12.858Z,24.83
2023-05-05T10:33:54.752Z,24.63
2023-05-05T10:36:27.511Z,24.51
2023-05-05T10:38:57.655Z,25.16
2023-05-05T10:41:26.303Z,25.00
2023-05-05T10:43:56.261Z,25.58
2023-05-05T10:46:25.049Z,25.91
2023-05-05T10:49:01.007Z,26.22
2023-05-05T10:51:44.174Z,25.46
2023-05-05T10:54:24.615Z,26.15
2023-05-05T10:56:53.787Z,26.51
2023-05-05T10:59:40.694Z,25.83
2023-05-05T11:02:27.500Z,25.86
2023-05-05T11:05:23.258Z,25.99
2023-05-05T11:07:53.117Z,26.27
2023-05-05T11:10:22.981Z,26.46
2023-05-05T11:13:19.035Z,26.04
2023-05-05T11:15:47.344Z,26.74
2023-05-05T11:18:36.434Z,26.53
2023-05-05T11:21:17.812Z,26.03
2023-05-05T11:23:51.882Z,25.20
2023-05-05T11:26:41.826Z,24.81
2023-05-05T11:29:09.616Z,25.26
2023-05-05T11:31:37.449Z,24.47
2023-05-05T11:34:26.171Z,24.48
2023-05-05T11:36:56.440Z,24.94
2023-05-05T11:39:36.776Z,25.44
2023-05-05T11:42:23.237Z,25.46
2023-05-05T11:44:51.668Z,25.06
2023-05-05T11:47:32.491Z,25.46
2023-05-05T11:50:18.008Z,24.93
2023-05-05T11:52:46.636Z,25.41
2023-05-05T11:55:21.151Z,25.47
2023-05-05T11:57:49.038Z,25.83
2023-05-05T12:00:17.737Z,25.92
2023-05-05T12:02:45.925Z,25.24
2023-05-05T12:05:20.723Z,25.63
2023-05-05T12:07:48.488Z,25.36
2023-05-05T12:10:24.991Z,25.27
2023-05-05T12:12:55.506Z,24.81
2023-05-05T12:15:30.857Z,25.11
2023-05-05T12:18:01.434Z,25.10
2023-05-05T12:20:32.326Z,25.21
2023-05-05T12:23:04.411Z,25.04
2023-05-05T12:25:40.954Z,25.52
2023-05-05T12:28:09.475Z,24.79
2023-05-05T12:30:37.467Z,25.00
2023-05-05T12:33:06.729Z,25.19
2023-05-05T12:35:35.925Z,25.11
2023-05-05T12:38:04.114Z,25.22
2023-05-05T12:40:47.321Z,25.67
2023-05-05T12:43:28.834Z,25.41
2023-05-05T12:46:04.170Z,25.28
2023-05-05T12:48:32.694Z,24.66
2023-05-05T12:51:14.743Z,25.15
2023-05-05T12:53:42.610Z,24.96
2023-05-05T12:56:36.124Z,25.23
2023-05-05T12:59:05.595Z,25.65
2023-05-05T13:01:33.515Z,25.91
2023-05-05T13:04:14.934Z,25.74
2023-05-05T13:06:44.356Z,25.80
2023-05-05T13:09:23.946Z,25.36
2023-05-05T13:11:53.647Z,25.06
2023-05-05T13:14:21.672Z,25.00
2023-05-05T13:16:49.860Z,25.06
2023-05-05T13:19:17.803Z,24.72
2023-05-05T13:21:45.504Z,24.77
2023-05-05T13:24:25.936Z,25.22
2023-05-05T13:27:00.768Z,25.24
2023-05-05T13:29:31.660Z,24.90
2023-05-05T13:31:59.834Z,24.41
2023-05-05T13:34:28.277Z,24.32
2023-05-05T13:36:56.308Z,24.42
2023-05-05T13:39:24.061Z,24.01
2023-05-05T13:41:51.903Z,24.38
2023-05-05T13:44:21.343Z,24.73
2023-05-05T13:46:49.318Z,24.45
2023-05-05T13:49:17.723Z,24.02
2023-05-05T13:51:46.881Z,24.15
2023-05-05T13:54:14.937Z,24.32
2023-05-05T13:56:43.760Z,24.24
2023-05-05T13:59:11.550Z,23.69
2023-05-05T14:01:40.762Z,24.23
2023-05-05T14:04:09.024Z,24.09
2023-05-05T14:06:36.781Z,24.60
2023-05-05T14:09:06.441Z,24.81
2023-05-05T14:11:34.507Z,25.24
2023-05-05T14:14:02.765Z,24.78
2023-05-05T14:16:30.645Z,24.95
2023-05-05T14:18:59.811Z,24.72
2023-05-05T14:21:27.532Z,24.66
2023-05-05T14:23:55.401Z,24.47
2023-05-05T14:26:23.259Z,24.41
2023-05-05T14:28:51.098Z,24.29
2023-05-05T14:31:18.870Z,24.04
2023-05-05T14:33:46.634Z,23.48
2023-05-05T14:36:15.703Z,23.60
2023-05-05T14:38:43.495Z,23.32
2023-05-05T14:41:11.799Z,23.06
2023-05-05T14:43:39.739Z,22.98
2023-05-05T14:46:07.669Z,23.03
2023-05-05T14:48:35.950Z,22.91
2023-05-05T14:51:04.712Z,22.91
2023-05-05T14:53:33.700Z,23.11
2023-05-05T14:56:02.082Z,23.26
2023-05-05T14:58:29.847Z,23.10
2023-05-05T15:00:57.526Z,22.78
2023-05-05T15:03:25.519Z,22.50
2023-05-05T15:05:53.379Z,22.18
2023-05-05T15:08:21.092Z,22.33
2023-05-05T15:10:50.125Z,22.13
2023-05-05T15:13:18.528Z,22.21
2023-05-05T15:15:46.293Z,21.55
2023-05-05T15:18:13.937Z,21.65
2023-05-05T15:20:41.721Z,21.67
2023-05-05T15:23:09.430Z,21.36
2023-05-05T15:25:37.045Z,20.92
2023-05-05T15:28:06.730Z,20.74
2023-05-05T15:30:34.691Z,20.84
2023-05-05T15:33:02.661Z,20.37
2023-05-05T15:35:30.780Z,20.23
2023-05-05T15:37:58.450Z,20.12
2023-05-05T15:40:26.158Z,19.60
2023-05-05T15:42:53.884Z,19.17
2023-05-05T15:45:22.892Z,18.61
2023-05-05T15:47:51.008Z,18.26
2023-05-05T15:50:18.880Z,17.62
2023-05-05T15:52:49.321Z,17.40
2023-05-05T15:55:17.742Z,17.28
2023-05-05T15:57:45.523Z,17.26
2023-05-05T16:00:14.509Z,17.24
2023-05-05T16:02:43.684Z,17.53
2023-05-05T16:05:12.299Z,17.74
2023-05-05T16:07:39.920Z,17.82
2023-05-05T16:10:09.155Z,17.87
2023-05-05T16:12:36.876Z,17.87
2023-05-05T16:15:05.055Z,17.88
2023-05-05T16:17:33.074Z,17.86
2023-05-05T16:20:02.145Z,17.87
2023-05-05T16:22:29.823Z,17.66
2023-05-05T16:24:57.560Z,17.81
2023-05-05T16:27:26.446Z,17.68
2023-05-05T16:29:54.530Z,17.67
2023-05-05T16:32:22.265Z,17.52
2023-05-05T16:34:50.055Z,17.81
2023-05-05T16:37:19.230Z,17.90
2023-05-05T16:39:46.905Z,18.11
2023-05-05T16:42:14.523Z,17.96
2023-05-05T16:44:42.175Z,17.94
2023-05-05T16:47:09.814Z,17.96
2023-05-05T16:49:37.583Z,18.03
2023-05-05T16:52:05.730Z,17.95
2023-05-05T16:54:34.953Z,17.84
2023-05-05T16:57:03.934Z,17.95
2023-05-05T16:59:31.790Z,18.16
2023-05-05T17:01:59.660Z,18.27
2023-05-05T17:04:27.413Z,18.22
2023-05-05T17:06:56.212Z,18.33
2023-05-05T17:09:24.884Z,18.23
2023-05-05T17:11:54.038Z,18.18
2023-05-05T17:14:21.666Z,18.44
2023-05-05T17:16:49.617Z,18.43
2023-05-05T17:19:17.459Z,18.44
2023-05-05T17:21:45.457Z,18.65
2023-05-05T17:24:13.425Z,18.44
2023-05-05T17:26:41.493Z,18.70
2023-05-05T17:29:12.839Z,18.77
2023-05-05T17:31:41.691Z,19.03
2023-05-05T17:34:09.564Z,18.99
2023-05-05T17:36:37.576Z,18.84
2023-05-05T17:39:07.355Z,19.09
2023-05-05T17:41:35.094Z,19.09
2023-05-05T17:44:02.725Z,19.17
2023-05-05T17:46:31.839Z,18.88
2023-05-05T17:49:00.766Z,18.78
2023-05-05T17:51:28.846Z,18.46
2023-05-05T17:53:56.565Z,18.84
2023-05-05T17:56:24.690Z,18.81
2023-05-05T17:58:52.968Z,18.49
2023-05-05T18:01:22.889Z,18.39
2023-05-05T18:03:52.371Z,18.80
2023-05-05T18:06:20.333Z,18.93
2023-05-05T18:08:48.033Z,18.68
2023-05-05T18:11:16.177Z,18.65
2023-05-05T18:13:44.396Z,18.34
2023-05-05T18:16:12.303Z,18.29
2023-05-05T18:18:41.144Z,18.17
2023-05-05T18:21:12.365Z,18.06
2023-05-05T18:23:40.678Z,18.11
2023-05-05T18:26:08.549Z,18.09
2023-05-05T18:28:38.137Z,18.29
2023-05-05T18:31:06.315Z,18.11
2023-05-05T18:33:34.291Z,18.08
2023-05-05T18:36:03.554Z,18.03
2023-05-05T18:38:33.613Z,17.87
2023-05-05T18:41:01.423Z,17.97
2023-05-05T18:43:29.395Z,18.13
2023-05-05T18:45:57.447Z,17.94
2023-05-05T18:48:26.239Z,18.09
2023-05-05T18:50:54.102Z,18.10
2023-05-05T18:53:22.364Z,17.99
2023-05-05T18:55:51.471Z,17.99
2023-05-05T18:58:19.495Z,18.10
2023-05-05T19:00:47.546Z,18.14
2023-05-05T19:03:15.740Z,18.05
2023-05-05T19:05:43.544Z,17.82
2023-05-05T19:08:11.676Z,17.74
2023-05-05T19:10:40.091Z,17.70
2023-05-05T19:13:09.978Z,17.94
2023-05-05T19:15:38.104Z,18.01
2023-05-05T19:18:06.669Z,17.96
2023-05-05T19:20:34.668Z,17.85
2023-05-05T19:23:04.570Z,17.76
2023-05-05T19:25:32.740Z,17.62
2023-05-05T19:28:00.625Z,17.57
2023-05-05T19:30:30.035Z,17.58
2023-05-05T19:32:58.054Z,17.65
2023-05-05T19:35:26.301Z,17.58
2023-05-05T19:37:54.842Z,17.59
2023-05-05T19:40:23.104Z,17.51
2023-05-05T19:42:50.770Z,17.34
2023-05-05T19:45:18.977Z,17.14
2023-05-05T19:47:48.257Z,17.09
2023-05-05T19:50:16.446Z,17.07
2023-05-05T19:52:44.350Z,16.93
2023-05-05T19:55:13.169Z,16.91
2023-05-05T19:57:41.740Z,16.89
2023-05-05T20:00:10.966Z,16.57
2023-05-05T20:02:39.072Z,16.49
2023-05-05T20:05:09.145Z,16.24
2023-05-05T20:07:36.804Z,15.99
2023-05-05T20:10:04.838Z,15.83
2023-05-05T20:12:32.753Z,15.53
2023-05-05T20:15:00.513Z,15.38
2023-05-05T20:17:28.574Z,15.33
2023-05-05T20:19:57.630Z,15.33
2023-05-05T20:22:26.885Z,15.30
2023-05-05T20:24:54.625Z,14.97
2023-05-05T20:27:22.385Z,15.04
2023-05-05T20:29:50.350Z,15.08
2023-05-05T20:32:20.522Z,15.13
2023-05-05T20:34:48.389Z,15.01
2023-05-05T20:37:16.172Z,15.09
2023-05-05T20:39:47.170Z,15.09
2023-05-05T20:42:14.837Z,15.05
2023-05-05T20:44:42.790Z,15.03
2023-05-05T20:47:10.762Z,14.87
2023-05-05T20:49:38.660Z,14.80
2023-05-05T20:52:06.531Z,14.82
2023-05-05T20:54:34.551Z,14.66
2023-05-05T20:57:03.773Z,14.66
2023-05-05T20:59:32.263Z,14.64
2023-05-05T21:02:00.319Z,14.49
2023-05-05T21:04:28.089Z,14.50
2023-05-05T21:06:55.815Z,14.52
2023-05-05T21:09:24.406Z,14.39
2023-05-05T21:11:52.283Z,14.44
2023-05-05T21:14:21.268Z,14.57
2023-05-05T21:16:49.223Z,14.60
2023-05-05T21:19:17.459Z,14.70
2023-05-05T21:21:45.108Z,14.73
2023-05-05T21:24:14.007Z,14.76
2023-05-05T21:26:44.245Z,14.72
2023-05-05T21:29:12.204Z,14.59
2023-05-05T21:31:41.281Z,14.31
2023-05-05T21:34:09.185Z,14.15
2023-05-05T21:36:37.061Z,14.14
2023-05-05T21:39:04.737Z,14.18
2023-05-05T21:41:32.496Z,14.09
2023-05-05T21:44:00.444Z,14.08
2023-05-05T21:46:28.432Z,14.19
2023-05-05T21:48:58.222Z,14.09
2023-05-05T21:51:26.500Z,14.15
2023-05-05T21:53:54.681Z,14.15
2023-05-05T21:56:22.858Z,14.13
2023-05-05T21:58:50.542Z,14.06
2023-05-05T22:01:18.289Z,13.99
2023-05-05T22:03:47.494Z,13.98
2023-05-05T22:06:17.936Z,13.92
2023-05-05T22:08:45.658Z,13.77
2023-05-05T22:11:13.932Z,13.78
2023-05-05T22:13:41.953Z,13.70
2023-05-05T22:16:11.002Z,13.59
2023-05-05T22:18:38.803Z,13.49
2023-05-05T22:21:07.390Z,13.48
2023-05-05T22:23:37.085Z,13.49
2023-05-05T22:26:05.708Z,13.36
2023-05-05T22:28:33.650Z,13.33
2023-05-05T22:31:01.499Z,13.37
2023-05-05T22:33:29.337Z,13.35
2023-05-05T22:35:57.021Z,13.16
2023-05-05T22:38:24.770Z,13.18
2023-05-05T22:40:54.173Z,13.20
2023-05-05T22:43:21.912Z,13.34
2023-05-05T22:45:49.660Z,13.42
2023-05-05T22:48:17.308Z,13.29
2023-05-05T22:50:45.586Z,13.14
2023-05-05T22:53:13.464Z,13.14
2023-05-05T22:55:41.143Z,13.08
2023-05-05T22:58:10.259Z,12.98
2023-05-05T23:00:37.884Z,13.02
2023-05-05T23:03:05.716Z,12.91
2023-05-05T23:05:34.384Z,12.81
2023-05-05T23:08:02.346Z,12.73
2023-05-05T23:10:30.597Z,12.69
2023-05-05T23:12:58.271Z,12.68
2023-05-05T23:15:27.302Z,12.68
2023-05-05T23:17:55.333Z,12.69
2023-05-05T23:20:23.283Z,12.78
2023-05-05T23:22:50.990Z,12.86
2023-05-05T23:25:18.614Z,12.90
2023-05-05T23:27:46.196Z,12.91
2023-05-05T23:30:14.607Z,12.94
2023-05-05T23:32:44.897Z,13.00
2023-05-05T23:35:13.058Z,12.95
2023-05-05T23:37:41.008Z,12.96
2023-05-05T23:40:09.957Z,12.97
2023-05-05T23:42:37.580Z,12.95
2023-05-05T23:45:05.750Z,12.87
2023-05-05T23:47:33.501Z,12.83
2023-05-05T23:50:02.528Z,12.78
2023-05-05T23:52:30.265Z,12.84
2023-05-05T23:54:57.899Z,12.82
2023-05-05T23:57:25.525Z,12.80
2023-05-05T23:59:53.285Z,12.82
